createdAt,value
2018-12-22T00:02:30.661Z,-3.25
2018-12-22T00:05:01.404Z,-3.22
2018-12-22T00:07:32.008Z,-3.07
2018-12-22T00:10:02.799Z,-2.99
2018-12-22T00:12:33.546Z,-3.11
2018-12-22T00:15:04.076Z,-3.12
2018-12-22T00:17:34.963Z,-3.10
2018-12-22T00:20:06.535Z,-3.19
2018-12-22T00:22:37.162Z,-3.16
2018-12-22T00:25:08.254Z,-3.19
2018-12-22T00:27:38.925Z,-3.20
2018-12-22T00:30:10.310Z,-3.20
2018-12-22T00:32:40.603Z,-3.20
2018-12-22T00:35:10.923Z,-3.24
2018-12-22T00:37:41.467Z,-3.25
2018-12-22T00:40:11.794Z,-3.30
2018-12-22T00:42:42.183Z,-3.39
2018-12-22T00:45:12.539Z,-3.45
2018-12-22T00:47:43.263Z,-3.43
2018-12-22T00:50:13.530Z,-3.31
2018-12-22T00:52:44.103Z,-3.35
2018-12-22T00:55:14.783Z,-3.44
2018-12-22T00:57:45.584Z,-3.48
2018-12-22T01:00:16.157Z,-3.40
2018-12-22T01:02:46.777Z,-3.46
2018-12-22T01:05:17.717Z,-3.46
2018-12-22T01:07:48.343Z,-3.47
2018-12-22T01:10:19.020Z,-3.47
2018-12-22T01:12:49.589Z,-3.25
2018-12-22T01:15:19.989Z,-3.26
2018-12-22T01:17:50.669Z,-3.33
2018-12-22T01:20:21.306Z,-3.43
2018-12-22T01:22:51.890Z,-3.26
2018-12-22T01:25:22.663Z,-3.30
2018-12-22T01:27:53.578Z,-3.39
2018-12-22T01:30:24.367Z,-3.44
2018-12-22T01:32:55.141Z,-3.56
2018-12-22T01:35:25.789Z,-3.59
2018-12-22T01:37:56.263Z,-3.61
2018-12-22T01:40:27.077Z,-3.65
2018-12-22T01:42:57.646Z,-3.72
2018-12-22T01:45:28.236Z,-3.82
2018-12-22T01:47:58.761Z,-3.78
2018-12-22T01:50:29.358Z,-3.85
2018-12-22T01:53:00.180Z,-3.97
2018-12-22T01:55:31.046Z,-4.01
2018-12-22T01:58:01.756Z,-4.05
2018-12-22T02:00:32.586Z,-3.99
2018-12-22T02:03:04.457Z,-3.88
2018-12-22T02:05:35.109Z,-3.93
2018-12-22T02:08:05.742Z,-4.00
2018-12-22T02:10:36.456Z,-4.01
2018-12-22T02:13:07.308Z,-4.00
2018-12-22T02:15:37.972Z,-4.03
2018-12-22T02:18:08.650Z,-4.06
2018-12-22T02:20:39.331Z,-3.95
2018-12-22T02:23:09.818Z,-4.00
2018-12-22T02:25:40.270Z,-4.06
2018-12-22T02:28:10.749Z,-3.99
2018-12-22T02:30:41.446Z,-3.94
2018-12-22T02:33:12.252Z,-3.84
2018-12-22T02:35:42.776Z,-3.94
2018-12-22T02:38:13.591Z,-3.82
2018-12-22T02:40:44.178Z,-3.73
2018-12-22T02:43:14.730Z,-3.61
2018-12-22T02:45:45.544Z,-3.61
2018-12-22T02:48:16.439Z,-3.63
2018-12-22T02:50:47.211Z,-3.54
2018-12-22T02:53:17.897Z,-3.47
2018-12-22T02:55:48.476Z,-3.42
2018-12-22T02:58:19.057Z,-3.47
2018-12-22T03:00:49.834Z,-3.43
2018-12-22T03:03:20.425Z,-3.30
2018-12-22T03:05:51.009Z,-3.36
2018-12-22T03:08:22.469Z,-3.49
2018-12-22T03:10:53.299Z,-3.40
2018-12-22T03:13:23.968Z,-3.42
2018-12-22T03:15:54.713Z,-3.49
2018-12-22T03:18:25.203Z,-3.52
2018-12-22T03:20:55.824Z,-3.46
2018-12-22T03:23:26.303Z,-3.52
2018-12-22T03:25:57.118Z,-3.54
2018-12-22T03:28:27.794Z,-3.43
2018-12-22T03:30:58.536Z,-3.54
2018-12-22T03:33:29.242Z,-3.46
2018-12-22T03:35:59.970Z,-3.36
2018-12-22T03:38:30.618Z,-3.36
2018-12-22T03:41:02.441Z,-3.31
2018-12-22T03:43:33.012Z,-3.33
2018-12-22T03:46:04.766Z,-3.50
2018-12-22T03:48:35.859Z,-3.55
2018-12-22T03:51:06.632Z,-3.57
2018-12-22T03:53:37.254Z,-3.56
2018-12-22T03:56:08.027Z,-3.54
2018-12-22T03:58:38.591Z,-3.47
2018-12-22T04:01:09.463Z,-3.50
2018-12-22T04:03:39.979Z,-3.38
2018-12-22T04:06:10.599Z,-3.38
2018-12-22T04:08:41.165Z,-3.46
2018-12-22T04:11:11.722Z,-3.54
2018-12-22T04:13:42.264Z,-3.47
2018-12-22T04:16:12.748Z,-3.61
2018-12-22T04:18:43.350Z,-3.56
2018-12-22T04:21:14.021Z,-3.60
2018-12-22T04:23:44.760Z,-3.68
2018-12-22T04:26:15.380Z,-3.60
2018-12-22T04:28:46.013Z,-3.74
2018-12-22T04:31:16.664Z,-3.73
2018-12-22T04:33:47.252Z,-3.73
2018-12-22T04:36:17.728Z,-3.65
2018-12-22T04:38:48.286Z,-3.49
2018-12-22T04:41:19.168Z,-3.53
2018-12-22T04:43:49.648Z,-3.38
2018-12-22T04:46:20.355Z,-3.38
2018-12-22T04:48:51.100Z,-3.46
2018-12-22T04:51:21.797Z,-3.54
2018-12-22T04:53:52.407Z,-3.54
2018-12-22T04:56:23.294Z,-3.49
2018-12-22T04:58:53.750Z,-3.52
2018-12-22T05:01:24.430Z,-3.57
2018-12-22T05:03:55.310Z,-3.55
2018-12-22T05:06:26.025Z,-3.62
2018-12-22T05:08:56.800Z,-3.65
2018-12-22T05:11:27.571Z,-3.61
2018-12-22T05:13:58.356Z,-3.63
2018-12-22T05:16:29.068Z,-3.76
2018-12-22T05:18:59.587Z,-3.73
2018-12-22T05:21:30.173Z,-3.66
2018-12-22T05:24:00.831Z,-3.59
2018-12-22T05:26:31.471Z,-3.66
2018-12-22T05:29:01.978Z,-3.71
2018-12-22T05:31:32.703Z,-3.61
2018-12-22T05:34:03.321Z,-3.75
2018-12-22T05:36:34.103Z,-3.77
2018-12-22T05:39:06.419Z,-3.66
2018-12-22T05:41:37.014Z,-3.52
2018-12-22T05:44:07.449Z,-3.55
2018-12-22T05:46:38.175Z,-3.69
2018-12-22T05:49:08.980Z,-3.65
2018-12-22T05:51:39.521Z,-3.63
2018-12-22T05:54:09.801Z,-3.47
2018-12-22T05:56:40.597Z,-3.41
2018-12-22T05:59:11.270Z,-3.58
2018-12-22T06:01:41.943Z,-3.39
2018-12-22T06:04:12.543Z,-3.25
2018-12-22T06:06:43.110Z,-3.29
2018-12-22T06:09:13.581Z,-3.32
2018-12-22T06:11:44.118Z,-3.36
2018-12-22T06:14:14.702Z,-3.25
2018-12-22T06:16:45.363Z,-3.32
2018-12-22T06:19:15.827Z,-3.31
2018-12-22T06:21:46.381Z,-3.39
2018-12-22T06:24:17.084Z,-3.41
2018-12-22T06:26:47.859Z,-3.52
2018-12-22T06:29:18.540Z,-3.51
2018-12-22T06:31:49.418Z,-3.79
2018-12-22T06:34:20.004Z,-3.95
2018-12-22T06:36:50.375Z,-3.91
2018-12-22T06:39:20.946Z,-3.88
2018-12-22T06:41:51.555Z,-3.92
2018-12-22T06:44:22.340Z,-3.95
2018-12-22T06:46:53.051Z,-3.87
2018-12-22T06:49:23.807Z,-3.69
2018-12-22T06:51:54.607Z,-3.68
2018-12-22T06:54:25.385Z,-3.73
2018-12-22T06:56:56.478Z,-3.58
2018-12-22T06:59:27.045Z,-3.73
2018-12-22T07:01:57.410Z,-3.73
2018-12-22T07:04:27.838Z,-3.72
2018-12-22T07:06:58.107Z,-3.76
2018-12-22T07:09:28.436Z,-3.59
2018-12-22T07:11:58.756Z,-3.68
2018-12-22T07:14:29.390Z,-3.46
2018-12-22T07:16:59.887Z,-3.16
2018-12-22T07:19:30.141Z,-3.10
2018-12-22T07:22:00.829Z,-2.98
2018-12-22T07:24:31.417Z,-2.97
2018-12-22T07:27:02.152Z,-2.89
2018-12-22T07:29:33.083Z,-2.77
2018-12-22T07:32:03.749Z,-2.66
2018-12-22T07:34:34.387Z,-2.52
2018-12-22T07:37:05.509Z,-2.41
2018-12-22T07:39:35.898Z,-2.43
2018-12-22T07:42:06.566Z,-2.26
2018-12-22T07:44:37.416Z,-2.28
2018-12-22T07:47:07.735Z,-2.40
2018-12-22T07:49:38.353Z,-2.57
2018-12-22T07:52:09.003Z,-2.70
2018-12-22T07:54:39.838Z,-2.70
2018-12-22T07:57:10.474Z,-2.86
2018-12-22T07:59:41.012Z,-2.98
2018-12-22T08:02:11.747Z,-2.93
2018-12-22T08:04:42.227Z,-3.05
2018-12-22T08:07:12.763Z,-3.32
2018-12-22T08:09:43.076Z,-3.33
2018-12-22T08:12:13.485Z,-3.41
2018-12-22T08:14:43.871Z,-3.28
2018-12-22T08:17:14.438Z,-3.34
2018-12-22T08:19:45.525Z,-3.19
2018-12-22T08:22:16.316Z,-2.99
2018-12-22T08:24:46.607Z,-2.70
2018-12-22T08:27:17.235Z,-2.48
2018-12-22T08:29:47.516Z,-2.19
2018-12-22T08:32:17.803Z,-2.09
2018-12-22T08:34:48.440Z,-1.93
2018-12-22T08:37:18.947Z,-1.86
2018-12-22T08:39:49.648Z,-1.60
2018-12-22T08:42:26.615Z,-1.47
2018-12-22T08:44:57.043Z,-1.21
2018-12-22T08:47:27.693Z,-1.16
2018-12-22T08:49:58.307Z,-1.13
2018-12-22T08:52:28.931Z,-1.02
2018-12-22T08:54:59.688Z,-1.21
2018-12-22T08:57:30.031Z,-1.12
2018-12-22T09:00:00.653Z,-1.11
2018-12-22T09:02:31.458Z,-1.18
2018-12-22T09:05:02.095Z,-1.00
2018-12-22T09:07:32.647Z,-0.86
2018-12-22T09:10:03.939Z,-0.70
2018-12-22T09:12:34.713Z,-0.72
2018-12-22T09:15:06.011Z,-0.61
2018-12-22T09:17:36.841Z,-0.30
2018-12-22T09:20:10.542Z,-0.08
2018-12-22T09:22:40.866Z,0.17
2018-12-22T09:25:11.274Z,0.57
2018-12-22T09:27:41.707Z,0.83
2018-12-22T09:30:13.845Z,0.77
2018-12-22T09:32:44.624Z,0.57
2018-12-22T09:35:15.318Z,0.55
2018-12-22T09:37:45.712Z,0.66
2018-12-22T09:40:16.037Z,0.67
2018-12-22T09:42:46.591Z,0.77
2018-12-22T09:45:17.352Z,0.81
2018-12-22T09:47:48.132Z,0.92
2018-12-22T09:50:19.827Z,0.81
2018-12-22T09:52:50.600Z,0.89
2018-12-22T09:55:21.696Z,0.95
2018-12-22T09:57:52.572Z,0.97
2018-12-22T10:00:23.287Z,0.85
2018-12-22T10:02:54.022Z,0.65
2018-12-22T10:05:25.664Z,0.69
2018-12-22T10:07:56.346Z,0.96
2018-12-22T10:10:26.884Z,1.26
2018-12-22T10:12:57.652Z,1.70
2018-12-22T10:15:29.034Z,1.83
2018-12-22T10:17:59.904Z,2.09
2018-12-22T10:20:30.671Z,1.94
2018-12-22T10:23:01.373Z,1.89
2018-12-22T10:25:31.931Z,1.62
2018-12-22T10:28:02.817Z,1.74
2018-12-22T10:30:33.752Z,1.62
2018-12-22T10:33:04.945Z,1.82
2018-12-22T10:35:35.554Z,1.69
2018-12-22T10:38:06.290Z,1.57
2018-12-22T10:40:36.911Z,1.56
2018-12-22T10:43:07.727Z,1.75
2018-12-22T10:45:38.413Z,1.74
2018-12-22T10:48:09.185Z,1.71
2018-12-22T10:50:39.670Z,1.81
2018-12-22T10:53:10.647Z,1.79
2018-12-22T10:55:41.407Z,2.06
2018-12-22T10:58:11.758Z,1.77
2018-12-22T11:00:42.456Z,1.99
2018-12-22T11:03:13.055Z,1.88
2018-12-22T11:05:43.725Z,1.90
2018-12-22T11:08:14.533Z,1.83
2018-12-22T11:10:45.314Z,1.62
2018-12-22T11:13:15.990Z,1.82
2018-12-22T11:15:46.707Z,1.63
2018-12-22T11:18:17.382Z,1.75
2018-12-22T11:20:48.150Z,1.71
2018-12-22T11:23:20.515Z,1.54
2018-12-22T11:25:52.903Z,1.76
2018-12-22T11:28:23.708Z,1.92
2018-12-22T11:30:54.719Z,1.95
2018-12-22T11:33:25.363Z,2.03
2018-12-22T11:35:56.167Z,1.91
2018-12-22T11:38:26.719Z,1.99
2018-12-22T11:40:57.356Z,1.83
2018-12-22T11:43:28.088Z,1.89
2018-12-22T11:45:58.948Z,1.81
2018-12-22T11:49:38.625Z,1.88
2018-12-22T11:52:09.383Z,1.89
2018-12-22T11:54:39.906Z,1.87
2018-12-22T11:57:10.680Z,1.82
2018-12-22T11:59:41.162Z,2.02
2018-12-22T12:02:11.974Z,2.02
2018-12-22T12:04:42.723Z,2.29
2018-12-22T12:07:13.294Z,2.28
2018-12-22T12:09:43.904Z,2.44
2018-12-22T12:12:14.704Z,2.60
2018-12-22T12:14:45.493Z,2.14
2018-12-22T12:17:37.795Z,2.34
2018-12-22T12:20:08.583Z,2.54
2018-12-22T12:22:39.123Z,2.68
2018-12-22T12:25:09.650Z,2.87
2018-12-22T12:27:40.423Z,2.93
2018-12-22T12:30:11.357Z,2.86
2018-12-22T12:32:42.235Z,3.02
2018-12-22T12:35:12.756Z,3.02
2018-12-22T12:37:43.322Z,3.10
2018-12-22T12:40:14.123Z,3.23
2018-12-22T12:42:44.748Z,3.24
2018-12-22T12:45:15.552Z,3.13
2018-12-22T12:47:46.832Z,3.21
2018-12-22T12:50:19.413Z,3.28
2018-12-22T12:52:50.107Z,3.40
2018-12-22T12:55:20.997Z,3.48
2018-12-22T12:57:51.592Z,3.64
2018-12-22T13:00:22.574Z,3.80
2018-12-22T13:02:53.211Z,3.82
2018-12-22T13:05:23.880Z,3.78
2018-12-22T13:07:54.543Z,3.82
2018-12-22T13:10:25.303Z,3.79
2018-12-22T13:13:06.133Z,3.82
2018-12-22T13:15:36.820Z,3.86
2018-12-22T13:18:07.453Z,3.99
2018-12-22T13:20:38.177Z,3.92
2018-12-22T13:23:09.133Z,4.05
2018-12-22T13:25:39.943Z,3.76
2018-12-22T13:28:10.823Z,3.65
2018-12-22T13:30:41.753Z,3.73
2018-12-22T13:33:12.910Z,3.44
2018-12-22T13:35:43.799Z,3.29
2018-12-22T13:38:14.437Z,3.23
2018-12-22T13:40:45.234Z,3.06
2018-12-22T13:43:15.867Z,2.78
2018-12-22T13:45:46.519Z,2.62
2018-12-22T13:48:17.144Z,2.52
2018-12-22T13:50:48.622Z,2.49
2018-12-22T13:53:19.500Z,2.43
2018-12-22T13:55:50.308Z,2.49
2018-12-22T13:58:20.871Z,2.54
2018-12-22T14:00:51.991Z,2.40
2018-12-22T14:03:29.036Z,2.29
2018-12-22T14:05:59.907Z,1.98
2018-12-22T14:08:30.533Z,1.89
2018-12-22T14:11:01.337Z,2.11
2018-12-22T14:13:31.874Z,1.96
2018-12-22T14:16:14.348Z,1.92
2018-12-22T14:18:48.693Z,1.91
2018-12-22T14:21:19.374Z,1.84
2018-12-22T14:24:54.034Z,1.86
2018-12-22T14:27:24.645Z,1.98
2018-12-22T14:29:55.219Z,1.79
2018-12-22T14:32:26.996Z,1.77
2018-12-22T14:35:09.442Z,1.65
2018-12-22T14:37:40.105Z,1.66
2018-12-22T14:40:11.364Z,1.55
2018-12-22T14:42:41.857Z,1.65
2018-12-22T14:45:13.325Z,1.51
2018-12-22T14:47:43.924Z,1.40
2018-12-22T14:50:14.255Z,1.45
2018-12-22T14:52:44.623Z,1.48
2018-12-22T14:55:15.529Z,1.47
2018-12-22T14:57:50.563Z,1.29
2018-12-22T15:00:20.876Z,1.20
2018-12-22T15:02:51.538Z,1.14
2018-12-22T15:05:21.986Z,1.22
2018-12-22T15:07:52.252Z,1.08
2018-12-22T15:10:22.739Z,1.21
2018-12-22T15:12:53.600Z,1.09
2018-12-22T15:15:23.936Z,1.10
2018-12-22T15:17:54.819Z,1.01
2018-12-22T15:20:26.983Z,0.98
2018-12-22T15:22:57.755Z,1.02
2018-12-22T15:25:28.600Z,1.04
2018-12-22T15:27:59.398Z,1.07
2018-12-22T15:30:29.990Z,1.10
2018-12-22T15:33:00.519Z,1.09
2018-12-22T15:35:31.205Z,1.24
2018-12-22T15:38:01.860Z,0.97
2018-12-22T15:40:32.501Z,1.08
2018-12-22T15:43:03.133Z,1.18
2018-12-22T15:45:33.682Z,1.03
2018-12-22T15:48:04.492Z,0.89
2018-12-22T15:50:37.172Z,0.83
2018-12-22T15:53:08.004Z,0.93
2018-12-22T15:55:38.786Z,1.03
2018-12-22T15:58:10.559Z,1.05
2018-12-22T16:00:41.349Z,1.10
2018-12-22T16:03:12.114Z,1.07
2018-12-22T16:05:42.693Z,1.15
2018-12-22T16:08:13.595Z,1.32
2018-12-22T16:10:44.235Z,1.33
2018-12-22T16:13:14.942Z,1.32
2018-12-22T16:15:45.567Z,1.14
2018-12-22T16:18:16.392Z,1.04
2018-12-22T16:20:47.131Z,1.12
2018-12-22T16:23:17.899Z,1.05
2018-12-22T16:25:48.493Z,1.07
2018-12-22T16:28:23.622Z,1.08
2018-12-22T16:30:57.264Z,1.14
2018-12-22T16:33:28.239Z,1.20
2018-12-22T16:35:58.991Z,1.20
2018-12-22T16:38:29.675Z,1.33
2018-12-22T16:41:00.264Z,1.14
2018-12-22T16:43:31.171Z,1.18
2018-12-22T16:46:01.864Z,1.31
2018-12-22T16:48:32.812Z,1.26
2018-12-22T16:51:03.519Z,1.30
2018-12-22T16:53:34.162Z,1.28
2018-12-22T16:56:05.037Z,1.25
2018-12-22T16:58:37.515Z,1.12
2018-12-22T17:01:25.018Z,1.10
2018-12-22T17:03:55.608Z,1.09
2018-12-22T17:06:26.294Z,1.09
2018-12-22T17:08:56.927Z,1.20
2018-12-22T17:11:27.511Z,1.18
2018-12-22T17:13:58.260Z,1.16
2018-12-22T17:16:28.899Z,1.22
2018-12-22T17:18:59.505Z,1.12
2018-12-22T17:21:44.995Z,1.11
2018-12-22T17:24:20.516Z,0.85
2018-12-22T17:26:50.965Z,0.71
2018-12-22T17:29:21.490Z,0.88
2018-12-22T17:31:52.205Z,0.91
2018-12-22T17:34:22.895Z,0.95
2018-12-22T17:36:53.684Z,0.95
2018-12-22T17:39:24.185Z,1.09
2018-12-22T17:41:54.940Z,1.08
2018-12-22T17:44:25.617Z,1.16
2018-12-22T17:46:56.347Z,0.85
2018-12-22T17:49:26.979Z,0.77
2018-12-22T17:51:57.690Z,0.86
2018-12-22T17:54:28.428Z,0.90
2018-12-22T17:56:59.067Z,0.87
2018-12-22T17:59:29.716Z,0.79
2018-12-22T18:02:00.785Z,0.59
2018-12-22T18:04:31.434Z,0.53
2018-12-22T18:07:02.040Z,0.41
2018-12-22T18:09:32.955Z,0.54
2018-12-22T18:12:03.651Z,0.38
2018-12-22T18:14:34.427Z,0.32
2018-12-22T18:17:04.997Z,0.40
2018-12-22T18:19:35.898Z,0.34
2018-12-22T18:22:06.521Z,0.22
2018-12-22T18:24:37.236Z,0.25
2018-12-22T18:27:07.815Z,0.17
2018-12-22T18:29:38.694Z,0.34
2018-12-22T18:32:09.294Z,0.38
2018-12-22T18:34:39.867Z,0.25
2018-12-22T18:37:10.406Z,0.25
2018-12-22T18:39:41.232Z,0.30
2018-12-22T18:42:12.386Z,0.18
2018-12-22T18:44:43.343Z,0.22
2018-12-22T18:47:13.846Z,0.28
2018-12-22T18:49:44.480Z,0.35
2018-12-22T18:52:15.043Z,0.29
2018-12-22T18:54:45.487Z,0.21
2018-12-22T18:57:16.119Z,0.28
2018-12-22T18:59:46.597Z,0.09
2018-12-22T19:02:17.343Z,0.02
2018-12-22T19:04:47.826Z,0.16
2018-12-22T19:07:20.246Z,0.22
2018-12-22T19:09:51.976Z,0.34
2018-12-22T19:12:22.442Z,0.26
2018-12-22T19:14:55.736Z,0.25
2018-12-22T19:17:26.290Z,0.19
2018-12-22T19:19:57.012Z,0.09
2018-12-22T19:22:27.777Z,0.02
2018-12-22T19:24:58.312Z,-0.04
2018-12-22T19:27:29.056Z,-0.13
2018-12-22T19:29:59.714Z,-0.14
2018-12-22T19:32:30.402Z,-0.19
2018-12-22T19:35:00.858Z,-0.22
2018-12-22T19:37:31.723Z,-0.13
2018-12-22T19:40:02.348Z,0.01
2018-12-22T19:42:32.642Z,0.03
2018-12-22T19:45:03.080Z,0.16
2018-12-22T19:47:33.591Z,-0.01
2018-12-22T19:50:04.121Z,0.01
2018-12-22T19:52:34.799Z,0.02
2018-12-22T19:55:05.622Z,0.10
2018-12-22T19:57:36.239Z,0.19
2018-12-22T20:00:07.633Z,0.24
2018-12-22T20:02:38.402Z,0.21
2018-12-22T20:05:09.580Z,0.33
2018-12-22T20:07:40.262Z,0.34
2018-12-22T20:10:11.004Z,0.41
2018-12-22T20:12:41.780Z,0.57
2018-12-22T20:15:12.291Z,0.75
2018-12-22T20:17:42.767Z,0.85
2018-12-22T20:20:13.463Z,0.94
2018-12-22T20:22:43.848Z,1.03
2018-12-22T20:25:14.375Z,1.10
2018-12-22T20:27:44.852Z,1.17
2018-12-22T20:30:15.262Z,1.31
2018-12-22T20:32:45.859Z,1.37
2018-12-22T20:35:16.275Z,1.47
2018-12-22T20:37:47.059Z,1.56
2018-12-22T20:40:17.568Z,1.58
2018-12-22T20:42:48.147Z,1.64
2018-12-22T20:45:18.647Z,1.69
2018-12-22T20:47:49.328Z,1.74
2018-12-22T20:50:20.212Z,1.76
2018-12-22T20:52:51.004Z,1.76
2018-12-22T20:55:21.894Z,1.64
2018-12-22T20:57:52.550Z,1.48
2018-12-22T21:00:23.386Z,1.42
2018-12-22T21:02:54.035Z,1.41
2018-12-22T21:05:26.818Z,1.26
2018-12-22T21:07:57.512Z,1.01
2018-12-22T21:10:27.978Z,0.89
2018-12-22T21:12:59.007Z,0.84
2018-12-22T21:15:30.022Z,0.81
2018-12-22T21:18:00.710Z,0.81
2018-12-22T21:20:31.447Z,0.77
2018-12-22T21:23:02.284Z,0.68
2018-12-22T21:25:33.020Z,0.63
2018-12-22T21:28:04.718Z,0.71
2018-12-22T21:30:35.555Z,0.57
2018-12-22T21:33:06.515Z,0.71
2018-12-22T21:35:37.356Z,0.76
2018-12-22T21:38:08.216Z,0.79
2018-12-22T21:40:39.032Z,0.97
2018-12-22T21:43:09.784Z,1.17
2018-12-22T21:45:40.417Z,1.25
2018-12-22T21:48:11.190Z,1.35
2018-12-22T21:50:42.091Z,1.53
2018-12-22T21:53:13.051Z,1.64
2018-12-22T21:55:43.600Z,1.73
2018-12-22T21:58:14.538Z,1.76
2018-12-22T22:00:45.591Z,1.88
2018-12-22T22:03:16.174Z,2.02
2018-12-22T22:05:46.871Z,2.12
2018-12-22T22:08:18.040Z,2.16
2018-12-22T22:10:48.933Z,2.23
2018-12-22T22:13:21.156Z,2.33
2018-12-22T22:15:52.034Z,2.46
2018-12-22T22:18:22.631Z,2.49
2018-12-22T22:20:53.270Z,2.54
2018-12-22T22:23:23.865Z,2.56
2018-12-22T22:25:54.670Z,2.55
2018-12-22T22:28:25.459Z,2.62
2018-12-22T22:30:56.361Z,2.56
2018-12-22T22:33:27.085Z,2.61
2018-12-22T22:35:57.928Z,2.57
2018-12-22T22:38:28.591Z,2.37
2018-12-22T22:40:59.284Z,2.35
2018-12-22T22:43:30.139Z,2.31
2018-12-22T22:46:01.171Z,2.20
2018-12-22T22:48:31.877Z,2.24
2018-12-22T22:51:02.651Z,2.27
2018-12-22T22:53:33.340Z,2.10
2018-12-22T22:56:03.965Z,1.95
2018-12-22T22:58:34.779Z,1.94
2018-12-22T23:01:05.691Z,1.77
2018-12-22T23:03:36.951Z,1.72
2018-12-22T23:06:07.888Z,1.62
2018-12-22T23:08:38.579Z,1.48
2018-12-22T23:11:09.442Z,1.47
2018-12-22T23:13:40.170Z,1.29
2018-12-22T23:16:10.755Z,1.34
2018-12-22T23:18:41.488Z,1.34
2018-12-22T23:21:12.463Z,1.33
2018-12-22T23:23:43.267Z,1.50
2018-12-22T23:26:13.938Z,1.34
2018-12-22T23:28:44.695Z,1.46
2018-12-22T23:31:15.406Z,1.54
2018-12-22T23:33:46.149Z,1.57
2018-12-22T23:36:16.781Z,1.58
2018-12-22T23:38:47.393Z,1.70
2018-12-22T23:41:18.014Z,1.84
2018-12-22T23:43:48.506Z,1.80
2018-12-22T23:46:19.188Z,1.92
2018-12-22T23:48:50.065Z,1.85
2018-12-22T23:51:20.662Z,1.95
2018-12-22T23:53:51.336Z,2.03
2018-12-22T23:56:22.098Z,2.28
2018-12-22T23:58:52.792Z,2.37
